Terminal Aerodrome Forecast
Issued by NWS

Home | Current Version | Previous Version | Text Only | Print | Product List | Glossary On
Versions: 1 2 3 4 5 6 7 8 9 10 11 12 13 14 15 16 17 18 19 20
616
FTUS44 KLZK 210530
TAFHOT
TAF
KHOT 210530Z 2106/2206 VRB04KT 6SM -RA BR SCT050 OVC100
      TEMPO 2106/2110 4SM -RA BR
     FM211000 VRB03KT 3SM -RA BR BKN020 OVC050
     FM211400 30005KT 2SM -RA BR OVC008
     FM211800 32005KT 5SM -RA BR OVC015
     FM220000 35004KT P6SM BKN025 OVC050=

USA.gov is the U.S. government's official web portal to all federal, state and local government web resources and services.